createdAt,value
2017-12-04T00:00:38.434Z,5.57
2017-12-04T00:03:05.986Z,6.23
2017-12-04T00:05:34.278Z,6.13
2017-12-04T00:08:01.806Z,6.15
2017-12-04T00:10:29.344Z,6.17
2017-12-04T00:12:57.250Z,5.87
2017-12-04T00:15:25.158Z,5.87
2017-12-04T00:17:53.091Z,5.43
2017-12-04T00:20:20.585Z,5.47
2017-12-04T00:22:48.510Z,4.95
2017-12-04T00:25:16.818Z,5.13
2017-12-04T00:27:44.339Z,7.27
2017-12-04T00:30:11.838Z,5.33
2017-12-04T00:32:39.370Z,5.27
2017-12-04T00:35:07.642Z,6.05
2017-12-04T00:37:35.938Z,5.10
2017-12-04T00:40:03.878Z,6.00
2017-12-04T00:42:31.386Z,5.62
2017-12-04T00:44:58.894Z,6.20
2017-12-04T00:47:26.854Z,4.70
2017-12-04T00:49:54.366Z,7.10
2017-12-04T00:52:22.270Z,5.03
2017-12-04T00:54:50.602Z,5.50
2017-12-04T00:57:18.552Z,9.88
2017-12-04T00:59:46.858Z,5.18
2017-12-04T01:02:15.166Z,6.30
2017-12-04T01:04:43.071Z,6.20
2017-12-04T01:07:10.578Z,9.33
2017-12-04T01:09:38.124Z,6.40
2017-12-04T01:12:05.635Z,5.07
2017-12-04T01:14:33.575Z,5.47
2017-12-04T01:17:01.894Z,4.97
2017-12-04T01:19:29.416Z,6.37
2017-12-04T01:21:57.686Z,6.03
2017-12-04T01:24:25.253Z,4.97
2017-12-04T01:26:53.154Z,5.87
2017-12-04T01:29:20.667Z,5.23
2017-12-04T01:31:48.230Z,6.22
2017-12-04T01:34:16.130Z,5.00
2017-12-04T01:36:43.667Z,5.07
2017-12-04T01:39:12.005Z,4.07
2017-12-04T01:41:40.416Z,6.37
2017-12-04T01:44:08.737Z,6.60
2017-12-04T01:46:37.203Z,5.10
2017-12-04T01:49:05.682Z,5.67
2017-12-04T01:51:33.261Z,5.43
2017-12-04T01:54:00.899Z,4.47
2017-12-04T01:56:28.798Z,6.40
2017-12-04T01:58:56.390Z,4.53
2017-12-04T02:01:25.602Z,5.37
2017-12-04T02:03:53.127Z,4.87
2017-12-04T02:06:21.250Z,4.87
2017-12-04T02:08:49.182Z,5.10
2017-12-04T02:11:16.753Z,5.73
2017-12-04T02:13:45.792Z,5.55
2017-12-04T02:16:13.348Z,4.95
2017-12-04T02:18:40.850Z,5.22
2017-12-04T02:21:08.413Z,5.77
2017-12-04T02:23:35.958Z,5.68
2017-12-04T02:26:03.582Z,4.87
2017-12-04T02:28:32.246Z,6.28
2017-12-04T02:31:00.884Z,4.60
2017-12-04T02:33:28.414Z,4.97
2017-12-04T02:35:55.946Z,5.53
2017-12-04T02:38:23.522Z,4.50
2017-12-04T02:40:51.841Z,6.23
2017-12-04T02:43:19.374Z,4.90
2017-12-04T02:45:46.918Z,4.10
2017-12-04T02:48:15.582Z,4.93
2017-12-04T02:50:43.134Z,4.90
2017-12-04T02:53:11.570Z,5.70
2017-12-04T02:55:40.094Z,4.03
2017-12-04T02:58:08.018Z,5.32
2017-12-04T03:00:35.602Z,4.13
2017-12-04T03:03:04.386Z,4.70
2017-12-04T03:05:32.355Z,5.25
2017-12-04T03:07:59.959Z,4.22
2017-12-04T03:10:27.458Z,4.50
2017-12-04T03:12:56.053Z,4.60
2017-12-04T03:15:24.132Z,4.90
2017-12-04T03:17:51.633Z,4.63
2017-12-04T03:20:19.234Z,4.40
2017-12-04T03:22:47.206Z,4.80
2017-12-04T03:25:16.087Z,4.75
2017-12-04T03:27:43.925Z,4.85
2017-12-04T03:30:11.489Z,5.00
2017-12-04T03:32:40.066Z,4.40
2017-12-04T03:35:07.596Z,6.23
2017-12-04T03:37:35.174Z,4.45
2017-12-04T03:40:03.473Z,4.70
2017-12-04T03:42:31.754Z,5.10
2017-12-04T03:45:00.141Z,5.12
2017-12-04T03:47:27.638Z,5.45
2017-12-04T03:49:55.573Z,5.22
2017-12-04T03:52:23.897Z,3.60
2017-12-04T03:54:52.197Z,5.43
2017-12-04T03:57:19.703Z,4.80
2017-12-04T03:59:47.670Z,4.83
2017-12-04T04:02:15.200Z,3.67
2017-12-04T04:04:43.123Z,4.68
2017-12-04T04:07:10.690Z,5.00
2017-12-04T04:09:38.216Z,6.18
2017-12-04T04:12:05.738Z,4.10
2017-12-04T04:14:34.054Z,4.30
2017-12-04T04:17:01.586Z,4.10
2017-12-04T04:19:29.861Z,4.68
2017-12-04T04:21:57.810Z,4.40
2017-12-04T04:24:25.314Z,3.90
2017-12-04T04:26:53.209Z,4.00
2017-12-04T04:29:20.751Z,4.32
2017-12-04T04:31:49.042Z,4.57
2017-12-04T04:34:16.982Z,4.87
2017-12-04T04:36:44.540Z,3.90
2017-12-04T04:39:12.812Z,5.00
2017-12-04T04:41:41.114Z,5.12
2017-12-04T04:44:09.056Z,4.40
2017-12-04T04:46:37.348Z,4.20
2017-12-04T04:49:05.271Z,4.03
2017-12-04T04:51:33.602Z,4.45
2017-12-04T04:54:01.158Z,3.72
2017-12-04T04:56:28.689Z,4.55
2017-12-04T04:58:56.994Z,4.50
2017-12-04T05:01:24.497Z,3.80
2017-12-04T05:03:52.030Z,3.35
2017-12-04T05:06:19.990Z,4.70
2017-12-04T05:08:47.504Z,3.78
2017-12-04T05:11:15.778Z,5.10
2017-12-04T05:13:43.318Z,3.37
2017-12-04T05:16:11.231Z,4.05
2017-12-04T05:18:39.531Z,4.97
2017-12-04T05:21:07.518Z,3.77
2017-12-04T05:23:35.021Z,4.25
2017-12-04T05:26:03.318Z,4.05
2017-12-04T05:28:30.921Z,4.10
2017-12-04T05:30:59.926Z,3.43
2017-12-04T05:33:28.189Z,3.33
2017-12-04T05:35:56.118Z,3.75
2017-12-04T05:38:23.684Z,3.90
2017-12-04T05:40:51.291Z,4.75
2017-12-04T05:43:20.417Z,3.55
2017-12-04T05:45:48.664Z,3.53
2017-12-04T05:48:16.186Z,3.47
2017-12-04T05:50:43.730Z,4.10
2017-12-04T05:53:11.256Z,3.97
2017-12-04T05:55:39.162Z,3.63
2017-12-04T05:58:06.734Z,4.15
2017-12-04T06:00:34.638Z,4.37
2017-12-04T06:03:02.910Z,4.10
2017-12-04T06:05:30.844Z,3.10
2017-12-04T06:07:58.354Z,4.07
2017-12-04T06:10:25.849Z,4.83
2017-12-04T06:12:53.390Z,3.95
2017-12-04T06:15:21.681Z,4.30
2017-12-04T06:17:49.600Z,5.53
2017-12-04T06:20:17.150Z,4.20
2017-12-04T06:22:44.658Z,4.55
2017-12-04T06:25:12.941Z,3.70
2017-12-04T06:27:41.229Z,4.53
2017-12-04T06:30:09.138Z,10.23
2017-12-04T06:32:36.633Z,5.83
2017-12-04T06:35:04.226Z,4.87
2017-12-04T06:37:32.486Z,12.47
2017-12-04T06:40:00.792Z,8.55
2017-12-04T06:42:29.114Z,11.90
2017-12-04T06:44:57.702Z,10.60
2017-12-04T06:47:25.625Z,12.50
2017-12-04T06:49:54.004Z,12.02
2017-12-04T06:52:21.566Z,14.10
2017-12-04T06:54:50.232Z,9.85
2017-12-04T06:57:18.582Z,12.23
2017-12-04T06:59:47.266Z,9.95
2017-12-04T07:02:15.176Z,5.72
2017-12-04T07:04:43.481Z,5.22
2017-12-04T07:07:11.016Z,10.30
2017-12-04T07:09:39.402Z,13.55
2017-12-04T07:12:06.950Z,6.47
2017-12-04T07:14:34.904Z,6.97
2017-12-04T07:17:02.418Z,9.23
2017-12-04T07:19:29.974Z,6.73
2017-12-04T07:21:57.529Z,6.33
2017-12-04T07:24:25.046Z,5.60
2017-12-04T07:26:52.624Z,4.83
2017-12-04T07:29:20.146Z,5.20
2017-12-04T07:31:48.062Z,5.33
2017-12-04T07:34:16.014Z,6.05
2017-12-04T07:36:44.293Z,4.80
2017-12-04T07:39:11.809Z,3.87
2017-12-04T07:41:39.758Z,5.57
2017-12-04T07:44:07.294Z,7.78
2017-12-04T07:46:34.865Z,6.15
2017-12-04T07:49:02.409Z,8.63
2017-12-04T07:51:29.937Z,4.93
2017-12-04T07:53:57.482Z,4.17
2017-12-04T07:56:25.788Z,5.80
2017-12-04T07:58:53.294Z,7.05
2017-12-04T08:01:21.194Z,6.63
2017-12-04T08:03:49.486Z,6.55
2017-12-04T08:06:17.015Z,4.55
2017-12-04T08:08:45.285Z,6.15
2017-12-04T08:11:12.903Z,5.90
2017-12-04T08:13:40.420Z,6.05
2017-12-04T08:16:08.723Z,6.63
2017-12-04T08:18:37.117Z,5.57
2017-12-04T08:21:04.626Z,8.53
2017-12-04T08:23:32.141Z,5.28
2017-12-04T08:26:00.098Z,6.07
2017-12-04T08:28:27.602Z,4.70
2017-12-04T08:30:55.110Z,8.70
2017-12-04T08:33:22.622Z,5.10
2017-12-04T08:35:50.164Z,6.40
2017-12-04T08:38:18.108Z,5.32
2017-12-04T08:40:46.046Z,4.25
2017-12-04T08:43:13.938Z,5.00
2017-12-04T08:45:41.478Z,5.37
2017-12-04T08:48:09.022Z,5.65
2017-12-04T08:50:37.293Z,3.42
2017-12-04T08:53:05.590Z,4.20
2017-12-04T08:55:33.578Z,4.10
2017-12-04T08:58:01.106Z,6.00
2017-12-04T09:00:29.379Z,4.00
2017-12-04T09:02:57.315Z,3.50
2017-12-04T09:05:24.816Z,5.78
2017-12-04T09:07:53.127Z,6.47
2017-12-04T09:10:20.687Z,4.15
2017-12-04T09:12:49.114Z,4.43
2017-12-04T09:15:16.622Z,3.10
2017-12-04T09:17:44.197Z,5.37
2017-12-04T09:20:12.470Z,3.50
2017-12-04T09:22:39.974Z,4.12
2017-12-04T09:25:07.912Z,3.08
2017-12-04T09:27:36.270Z,4.28
2017-12-04T09:30:05.366Z,3.95
2017-12-04T09:32:33.597Z,5.15
2017-12-04T09:35:01.643Z,4.03
2017-12-04T09:37:29.159Z,4.40
2017-12-04T09:39:56.702Z,6.28
2017-12-04T09:42:24.967Z,3.92
2017-12-04T09:44:53.285Z,3.58
2017-12-04T09:47:21.579Z,5.80
2017-12-04T09:49:49.096Z,5.33
2017-12-04T09:52:17.026Z,3.78
2017-12-04T09:54:44.626Z,3.60
2017-12-04T09:57:12.161Z,3.25
2017-12-04T09:59:40.447Z,4.10
2017-12-04T10:02:08.764Z,3.58
2017-12-04T10:04:36.331Z,3.40
2017-12-04T10:07:03.879Z,4.12
2017-12-04T10:09:31.502Z,3.20
2017-12-04T10:11:59.790Z,3.80
2017-12-04T10:14:28.091Z,4.18
2017-12-04T10:16:55.671Z,3.75
2017-12-04T10:19:23.186Z,4.12
2017-12-04T10:21:52.112Z,3.97
2017-12-04T10:24:20.490Z,3.15
2017-12-04T10:26:48.397Z,3.33
2017-12-04T10:29:16.302Z,4.15
2017-12-04T10:31:44.252Z,4.97
2017-12-04T10:34:12.159Z,7.05
2017-12-04T10:36:39.736Z,6.35
2017-12-04T10:39:07.275Z,3.73
2017-12-04T10:41:34.798Z,3.03
2017-12-04T10:44:03.075Z,3.80
2017-12-04T10:46:31.416Z,3.28
2017-12-04T10:48:58.925Z,3.17
2017-12-04T10:51:27.242Z,7.30
2017-12-04T10:53:55.591Z,3.97
2017-12-04T10:56:23.978Z,4.30
2017-12-04T10:58:51.558Z,4.70
2017-12-04T11:01:19.866Z,4.35
2017-12-04T11:03:47.781Z,3.12
2017-12-04T11:06:15.726Z,4.67
2017-12-04T11:08:43.748Z,4.80
2017-12-04T11:11:11.649Z,3.97
2017-12-04T11:13:39.203Z,3.90
2017-12-04T11:16:07.154Z,3.25
2017-12-04T11:18:35.478Z,3.70
2017-12-04T11:21:03.758Z,3.37
2017-12-04T11:23:32.050Z,4.85
2017-12-04T11:25:59.586Z,3.50
2017-12-04T11:28:27.484Z,2.90
2017-12-04T11:30:55.426Z,4.80
2017-12-04T11:33:23.329Z,3.85
2017-12-04T11:35:51.595Z,3.72
2017-12-04T11:38:19.580Z,3.78
2017-12-04T11:40:47.104Z,4.28
2017-12-04T11:43:15.398Z,5.47
2017-12-04T11:45:42.938Z,4.15
2017-12-04T11:48:11.242Z,4.70
2017-12-04T11:50:38.766Z,4.07
2017-12-04T11:53:06.714Z,3.60
2017-12-04T11:55:34.245Z,3.92
2017-12-04T11:58:01.754Z,4.60
2017-12-04T12:00:30.086Z,4.00
2017-12-04T12:02:57.601Z,3.62
2017-12-04T12:05:25.894Z,3.40
2017-12-04T12:07:53.458Z,3.50
2017-12-04T12:10:20.970Z,3.40
2017-12-04T12:12:48.475Z,3.30
2017-12-04T12:15:16.431Z,4.37
2017-12-04T12:17:43.958Z,3.33
2017-12-04T12:20:13.001Z,3.17
2017-12-04T12:22:40.550Z,3.65
2017-12-04T12:25:08.474Z,3.08
2017-12-04T12:27:35.977Z,2.65
2017-12-04T12:30:03.918Z,3.37
2017-12-04T12:32:31.422Z,3.17
2017-12-04T12:34:58.922Z,5.90
2017-12-04T12:37:26.494Z,3.15
2017-12-04T12:39:54.011Z,3.15
2017-12-04T12:42:21.521Z,3.17
2017-12-04T12:44:49.854Z,2.55
2017-12-04T12:47:17.390Z,3.12
2017-12-04T12:49:44.897Z,4.78
2017-12-04T12:52:12.860Z,3.03
2017-12-04T12:54:40.366Z,4.07
2017-12-04T12:57:08.290Z,3.28
2017-12-04T12:59:35.826Z,7.45
2017-12-04T13:02:03.378Z,4.82
2017-12-04T13:04:30.906Z,6.35
2017-12-04T13:06:58.473Z,6.80
2017-12-04T13:09:26.070Z,4.00
2017-12-04T13:11:53.578Z,3.67
2017-12-04T13:14:21.909Z,5.03
2017-12-04T13:16:49.434Z,7.20
2017-12-04T13:19:16.964Z,6.93
2017-12-04T13:21:45.291Z,4.72
2017-12-04T13:24:13.189Z,5.25
2017-12-04T13:26:41.458Z,6.00
2017-12-04T13:29:09.021Z,6.07
2017-12-04T13:31:36.631Z,5.30
2017-12-04T13:34:16.856Z,7.57
2017-12-04T13:36:49.984Z,8.32
2017-12-04T13:39:18.357Z,4.57
2017-12-04T13:41:46.834Z,6.18
2017-12-04T13:44:15.846Z,6.35
2017-12-04T13:46:43.370Z,4.30
2017-12-04T13:49:11.691Z,5.37
2017-12-04T13:51:39.971Z,5.25
2017-12-04T13:54:08.885Z,5.82
2017-12-04T13:56:36.811Z,5.47
2017-12-04T13:59:04.342Z,7.50
2017-12-04T14:01:32.321Z,4.80
2017-12-04T14:04:02.629Z,4.97
2017-12-04T14:06:30.515Z,5.10
2017-12-04T14:08:58.460Z,4.45
2017-12-04T14:11:26.490Z,4.47
2017-12-04T14:13:54.019Z,9.45
2017-12-04T14:16:21.958Z,6.62
2017-12-04T14:18:49.590Z,5.00
2017-12-04T14:21:17.858Z,5.22
2017-12-04T14:23:46.757Z,6.80
2017-12-04T14:26:15.406Z,5.60
2017-12-04T14:28:44.281Z,4.32
2017-12-04T14:31:13.185Z,7.20
2017-12-04T14:33:41.453Z,5.22
2017-12-04T14:36:09.734Z,10.65
2017-12-04T14:38:38.094Z,6.97
2017-12-04T14:41:07.158Z,5.95
2017-12-04T14:43:34.689Z,7.25
2017-12-04T14:46:03.768Z,6.30
2017-12-04T14:48:32.035Z,6.53
2017-12-04T14:51:00.309Z,4.28
2017-12-04T14:53:28.618Z,6.28
2017-12-04T14:55:57.008Z,5.07
2017-12-04T14:58:25.901Z,3.90
2017-12-04T15:00:53.473Z,7.53
2017-12-04T15:03:20.986Z,5.65
2017-12-04T15:05:49.249Z,6.50
2017-12-04T15:08:16.821Z,3.33
2017-12-04T15:10:46.360Z,9.00
2017-12-04T15:16:05.805Z,4.78
2017-12-04T15:18:34.693Z,6.93
2017-12-04T15:21:02.998Z,6.55
2017-12-04T15:23:30.530Z,5.37
2017-12-04T15:25:59.210Z,4.70
2017-12-04T15:28:26.727Z,4.07
2017-12-04T15:30:54.258Z,4.97
2017-12-04T15:33:21.806Z,4.57
2017-12-04T15:35:50.226Z,4.37
2017-12-04T15:38:18.498Z,5.28
2017-12-04T15:40:47.154Z,4.70
2017-12-04T15:43:15.450Z,3.50
2017-12-04T15:45:44.374Z,4.90
2017-12-04T15:48:13.448Z,6.32
2017-12-04T15:50:42.339Z,6.43
2017-12-04T15:53:11.107Z,3.75
2017-12-04T15:55:38.798Z,8.87
2017-12-04T15:58:06.321Z,4.97
2017-12-04T16:00:34.618Z,4.60
2017-12-04T16:03:02.160Z,5.43
2017-12-04T16:05:31.014Z,6.03
2017-12-04T16:07:59.882Z,5.55
2017-12-04T16:10:32.691Z,5.37
2017-12-04T16:13:02.642Z,5.78
2017-12-04T16:15:30.210Z,5.60
2017-12-04T16:17:58.475Z,4.57
2017-12-04T16:20:26.749Z,6.18
2017-12-04T16:22:55.088Z,5.87
2017-12-04T16:25:22.721Z,5.55
2017-12-04T16:27:50.261Z,6.12
2017-12-04T16:30:17.791Z,4.85
2017-12-04T16:32:45.321Z,4.43
2017-12-04T16:35:13.668Z,5.93
2017-12-04T16:37:41.205Z,4.20
2017-12-04T16:40:09.510Z,5.37
2017-12-04T16:42:37.043Z,4.83
2017-12-04T16:45:05.760Z,4.25
2017-12-04T16:47:33.315Z,5.40
2017-12-04T16:50:00.860Z,5.72
2017-12-04T16:52:28.454Z,5.80
2017-12-04T16:54:55.986Z,5.20
2017-12-04T16:57:23.530Z,4.95
2017-12-04T16:59:51.850Z,4.70
2017-12-04T17:02:20.154Z,3.87
2017-12-04T17:04:49.313Z,4.00
2017-12-04T17:07:18.222Z,7.18
2017-12-04T17:09:46.535Z,3.55
2017-12-04T17:12:14.063Z,9.27
2017-12-04T17:14:41.703Z,5.95
2017-12-04T17:17:09.180Z,4.28
2017-12-04T17:19:38.218Z,5.68
2017-12-04T17:22:06.635Z,7.53
2017-12-04T17:24:34.176Z,4.35
2017-12-04T17:27:02.106Z,4.20
2017-12-04T17:29:29.634Z,5.68
2017-12-04T17:31:57.922Z,6.50
2017-12-04T17:34:25.429Z,4.40
2017-12-04T17:36:53.755Z,3.43
2017-12-04T17:39:22.126Z,5.03
2017-12-04T17:41:50.985Z,6.85
2017-12-04T17:44:19.281Z,5.37
2017-12-04T17:46:46.801Z,5.50
2017-12-04T17:49:15.102Z,11.60
2017-12-04T17:51:42.638Z,28.45
2017-12-04T17:54:11.310Z,52.72
2017-12-04T17:56:38.823Z,69.12
2017-12-04T17:59:06.374Z,104.25
2017-12-04T18:01:33.895Z,123.70
2017-12-04T18:04:04.491Z,153.80
2017-12-04T18:06:32.897Z,147.13
2017-12-04T18:09:00.422Z,136.62
2017-12-04T18:11:27.946Z,188.50
2017-12-04T18:13:55.518Z,225.02
2017-12-04T18:16:24.582Z,227.65
2017-12-04T18:18:53.624Z,282.35
2017-12-04T18:21:21.195Z,338.75
2017-12-04T18:23:50.118Z,360.30
2017-12-04T18:26:17.672Z,351.80
2017-12-04T18:28:46.566Z,364.65
2017-12-04T18:31:14.597Z,332.62
2017-12-04T18:33:42.126Z,353.90
2017-12-04T18:36:10.536Z,335.90
2017-12-04T18:38:38.902Z,316.60
2017-12-04T18:41:07.214Z,308.33
2017-12-04T18:43:36.079Z,315.27
2017-12-04T18:46:03.745Z,295.70
2017-12-04T18:48:31.378Z,275.35
2017-12-04T18:50:59.995Z,266.57
2017-12-04T18:53:27.597Z,257.90
2017-12-04T18:55:56.878Z,235.20
2017-12-04T18:58:25.128Z,229.98
2017-12-04T19:00:53.607Z,217.95
2017-12-04T19:03:22.496Z,216.40
2017-12-04T19:05:50.331Z,205.75
2017-12-04T19:08:18.846Z,190.85
2017-12-04T19:10:47.072Z,180.27
2017-12-04T19:13:16.228Z,173.20
2017-12-04T19:15:44.010Z,174.67
2017-12-04T19:18:12.373Z,167.05
2017-12-04T19:20:39.936Z,159.07
2017-12-04T19:23:08.391Z,150.97
2017-12-04T19:25:36.508Z,146.35
2017-12-04T19:28:04.061Z,139.40
2017-12-04T19:30:31.651Z,129.57
2017-12-04T19:32:59.938Z,129.50
2017-12-04T19:35:29.905Z,122.53
2017-12-04T19:37:57.854Z,121.85
2017-12-04T19:40:26.754Z,110.70
2017-12-04T19:42:54.390Z,111.88
2017-12-04T19:45:22.138Z,104.53
2017-12-04T19:47:50.806Z,95.03
2017-12-04T19:50:18.382Z,99.13
2017-12-04T19:52:46.032Z,94.75
2017-12-04T19:55:14.003Z,89.53
2017-12-04T19:57:42.416Z,90.07
2017-12-04T20:00:10.854Z,89.07
2017-12-04T20:02:39.939Z,82.95
2017-12-04T20:05:07.532Z,81.85
2017-12-04T20:07:36.242Z,75.80
2017-12-04T20:10:05.105Z,78.82
2017-12-04T20:12:33.535Z,68.50
2017-12-04T20:15:02.537Z,80.68
2017-12-04T20:17:30.321Z,65.53
2017-12-04T20:19:58.677Z,64.55
2017-12-04T20:22:26.295Z,69.35
2017-12-04T20:24:54.294Z,69.45
2017-12-04T20:27:23.093Z,60.05
2017-12-04T20:29:50.677Z,59.27
2017-12-04T20:32:19.598Z,64.40
2017-12-04T20:34:47.188Z,60.85
2017-12-04T20:37:15.212Z,59.03
2017-12-04T20:39:43.902Z,55.55
2017-12-04T20:42:11.528Z,53.07
2017-12-04T20:44:39.072Z,52.30
2017-12-04T20:47:08.138Z,70.97
2017-12-04T20:49:36.470Z,53.90
2017-12-04T20:52:03.990Z,48.30
2017-12-04T20:54:32.295Z,51.20
2017-12-04T20:57:00.668Z,43.90
2017-12-04T20:59:28.580Z,46.10
2017-12-04T21:01:56.872Z,47.90
2017-12-04T21:04:25.219Z,40.58
2017-12-04T21:06:53.138Z,48.33
2017-12-04T21:09:32.668Z,40.20
2017-12-04T21:12:01.007Z,44.30
2017-12-04T21:14:40.652Z,39.47
2017-12-04T21:17:35.495Z,44.63
2017-12-04T21:20:03.193Z,43.05
2017-12-04T21:22:31.534Z,41.23
2017-12-04T21:24:59.862Z,40.73
2017-12-04T21:27:28.825Z,43.70
2017-12-04T21:29:56.811Z,37.93
2017-12-04T21:32:24.404Z,40.97
2017-12-04T21:34:51.962Z,37.25
2017-12-04T21:37:19.593Z,42.58
2017-12-04T21:39:47.151Z,39.67
2017-12-04T21:42:15.103Z,41.67
2017-12-04T21:44:43.452Z,38.95
2017-12-04T21:47:11.788Z,37.67
2017-12-04T21:49:39.366Z,38.90
2017-12-04T21:52:06.897Z,26.90
2017-12-04T21:54:34.472Z,40.03
2017-12-04T21:57:02.051Z,35.33
2017-12-04T21:59:29.606Z,32.80
2017-12-04T22:01:57.971Z,33.40
2017-12-04T22:04:26.338Z,33.43
2017-12-04T22:06:53.902Z,31.37
2017-12-04T22:09:21.501Z,28.75
2017-12-04T22:11:49.154Z,29.98
2017-12-04T22:14:16.694Z,31.00
2017-12-04T22:16:44.692Z,28.63
2017-12-04T22:19:13.130Z,28.87
2017-12-04T22:21:40.654Z,29.23
2017-12-04T22:24:08.947Z,31.53
2017-12-04T22:26:38.486Z,26.47
2017-12-04T22:29:06.020Z,28.42
2017-12-04T22:31:33.554Z,28.20
2017-12-04T22:34:01.507Z,23.45
2017-12-04T22:36:29.123Z,26.30
2017-12-04T22:38:57.500Z,26.08
2017-12-04T22:41:25.810Z,24.87
2017-12-04T22:43:53.329Z,25.37
2017-12-04T22:46:20.865Z,24.30
2017-12-04T22:48:48.487Z,23.73
2017-12-04T22:51:16.032Z,27.50
2017-12-04T22:53:44.375Z,23.45
2017-12-04T22:56:12.305Z,26.03
2017-12-04T22:58:40.215Z,21.65
2017-12-04T23:01:07.761Z,25.05
2017-12-04T23:03:35.760Z,25.12
2017-12-04T23:06:03.278Z,27.47
2017-12-04T23:08:31.582Z,23.23
2017-12-04T23:10:59.228Z,22.97
2017-12-04T23:13:27.525Z,21.83
2017-12-04T23:15:55.457Z,24.93
2017-12-04T23:18:29.246Z,21.20
2017-12-04T23:20:57.895Z,25.50
2017-12-04T23:23:25.794Z,21.20
2017-12-04T23:25:53.326Z,20.83
2017-12-04T23:28:21.620Z,19.70
2017-12-04T23:30:49.915Z,22.80
2017-12-04T23:33:17.452Z,21.80
2017-12-04T23:35:44.994Z,25.75
2017-12-04T23:38:12.509Z,20.30
2017-12-04T23:40:40.890Z,16.37
2017-12-04T23:43:09.168Z,18.12
2017-12-04T23:45:37.090Z,17.67
2017-12-04T23:48:04.658Z,19.12
2017-12-04T23:50:32.174Z,21.40
2017-12-04T23:52:59.746Z,20.13
2017-12-04T23:55:27.320Z,17.27
2017-12-04T23:58:06.275Z,18.37
